Time;durP1;ratioP1;P1;durP2;ratioP2;P2;SDS_P1;SDS_P2;PMS_P1;PMS_P2;Temp;Humidity;BMP_temperature;BMP_pressure;BME280_temperature;BME280_humidity;BME280_pressure;Samples;Min_cycle;Max_cycle;Signal;HPM_P1;HPM_P2
2022/03/19 00:00:13;;;;;;;13.73;8.68;;;;;;;;;;4983649;28;20034;-86
2022/03/19 00:02:38;;;;;;;15.30;8.15;;;;;;;;;;4998626;28;20026;-86
2022/03/19 00:05:04;;;;;;;13.98;7.68;;;;;;;;;;4982125;28;20037;-85
2022/03/19 00:07:32;;;;;;;14.52;8.18;;;;;;;;;;5015375;28;20121;-80
2022/03/19 00:09:58;;;;;;;16.58;8.05;;;;;;;;;;4987427;28;20026;-78
2022/03/19 00:12:23;;;;;;;14.65;8.00;;;;;;;;;;4988647;28;20518;-80
2022/03/19 00:14:48;;;;;;;10.10;7.43;;;;;;;;;;4983635;28;20027;-82
2022/03/19 00:17:14;;;;;;;12.80;7.47;;;;;;;;;;4985740;28;20026;-87
2022/03/19 00:19:40;;;;;;;20.73;7.40;;;;;;;;;;5014919;28;20030;-87
2022/03/19 00:22:06;;;;;;;14.75;7.32;;;;;;;;;;5024388;28;20495;-80
2022/03/19 00:24:32;;;;;;;16.65;7.85;;;;;;;;;;4989749;28;20399;-79
2022/03/19 00:26:58;;;;;;;13.65;7.60;;;;;;;;;;4989390;28;20034;-86
2022/03/19 00:29:24;;;;;;;12.93;7.22;;;;;;;;;;5016422;28;20033;-77
2022/03/19 00:31:49;;;;;;;13.10;7.53;;;;;;;;;;4987756;28;20180;-87
2022/03/19 00:34:14;;;;;;;12.93;7.13;;;;;;;;;;4995334;28;20542;-77
2022/03/19 00:36:40;;;;;;;11.73;7.00;;;;;;;;;;4987367;28;20035;-78
2022/03/19 00:39:05;;;;;;;13.73;6.90;;;;;;;;;;4986653;28;20095;-77
2022/03/19 00:41:30;;;;;;;14.80;7.43;;;;;;;;;;4982915;28;20030;-82
2022/03/19 00:43:56;;;;;;;13.85;7.35;;;;;;;;;;4981677;28;20030;-85
2022/03/19 00:46:21;;;;;;;13.10;7.15;;;;;;;;;;4980546;28;20033;-79
2022/03/19 00:48:46;;;;;;;13.05;7.10;;;;;;;;;;5013346;28;21320;-80
2022/03/19 00:51:12;;;;;;;12.25;6.85;;;;;;;;;;4982562;28;20549;-82
2022/03/19 00:53:37;;;;;;;14.10;7.65;;;;;;;;;;4992545;28;20032;-78
2022/03/19 00:56:03;;;;;;;13.48;6.93;;;;;;;;;;4980405;28;20178;-80
2022/03/19 00:58:28;;;;;;;11.93;7.35;;;;;;;;;;4980337;28;20121;-79
2022/03/19 01:00:53;;;;;;;13.73;7.05;;;;;;;;;;4980105;28;20033;-81
2022/03/19 01:03:19;;;;;;;15.32;7.05;;;;;;;;;;4983072;28;20045;-80
2022/03/19 01:05:44;;;;;;;11.95;6.95;;;;;;;;;;4984006;28;20490;-87
2022/03/19 01:08:11;;;;;;;13.18;6.90;;;;;;;;;;5013411;28;20023;-86
2022/03/19 01:10:37;;;;;;;16.23;7.55;;;;;;;;;;4980984;28;20491;-79
2022/03/19 01:13:04;;;;;;;14.73;7.57;;;;;;;;;;5015520;28;20069;-81
2022/03/19 01:15:30;;;;;;;14.95;6.85;;;;;;;;;;4980203;28;20046;-87
2022/03/19 01:17:55;;;;;;;14.35;7.75;;;;;;;;;;4982395;28;20482;-81
2022/03/19 01:20:21;;;;;;;12.88;6.47;;;;;;;;;;4996837;28;20034;-81
2022/03/19 01:22:47;;;;;;;10.60;6.25;;;;;;;;;;4997990;28;20049;-86
2022/03/19 01:25:14;;;;;;;12.30;6.15;;;;;;;;;;4975514;28;20783;-82
2022/03/19 01:27:41;;;;;;;11.43;6.47;;;;;;;;;;4981006;28;20112;-77
2022/03/19 01:30:08;;;;;;;12.88;6.53;;;;;;;;;;4981210;28;20040;-77
2022/03/19 01:32:34;;;;;;;12.80;6.45;;;;;;;;;;5012096;28;20035;-79
2022/03/19 01:34:59;;;;;;;11.20;6.22;;;;;;;;;;4981438;28;20057;-87
2022/03/19 01:37:25;;;;;;;10.35;6.15;;;;;;;;;;5016565;28;20018;-79
2022/03/19 01:39:53;;;;;;;11.13;6.10;;;;;;;;;;4980048;28;20034;-85
2022/03/19 01:42:27;;;;;;;12.30;6.25;;;;;;;;;;4982496;28;20064;-82
2022/03/19 01:44:54;;;;;;;13.57;6.65;;;;;;;;;;4983895;28;20069;-81
2022/03/19 01:47:21;;;;;;;11.00;6.65;;;;;;;;;;4994465;28;20085;-86
2022/03/19 01:49:46;;;;;;;13.00;6.47;;;;;;;;;;4982104;28;20038;-78
2022/03/19 01:52:12;;;;;;;12.23;6.28;;;;;;;;;;4981560;28;20070;-83
2022/03/19 01:54:40;;;;;;;12.35;5.90;;;;;;;;;;4980600;28;20042;-80
2022/03/19 01:57:07;;;;;;;12.73;6.55;;;;;;;;;;4973623;28;20054;-87
2022/03/19 01:59:34;;;;;;;14.50;6.22;;;;;;;;;;4978737;28;20034;-80
2022/03/19 02:02:05;;;;;;;12.43;6.30;;;;;;;;;;4978248;28;20037;-80
2022/03/19 02:04:33;;;;;;;10.75;5.70;;;;;;;;;;4985741;28;20049;-82
2022/03/19 02:06:59;;;;;;;15.60;6.15;;;;;;;;;;4982255;28;20042;-79
2022/03/19 02:09:25;;;;;;;13.18;6.32;;;;;;;;;;4996240;28;20050;-80
2022/03/19 02:11:51;;;;;;;11.95;5.95;;;;;;;;;;4980621;28;20129;-81
2022/03/19 02:14:17;;;;;;;12.77;5.65;;;;;;;;;;4980659;28;20033;-87
2022/03/19 02:16:43;;;;;;;12.88;5.70;;;;;;;;;;4978371;28;20383;-81
2022/03/19 02:19:10;;;;;;;10.00;5.60;;;;;;;;;;5011539;28;20034;-81
2022/03/19 02:21:44;;;;;;;9.77;4.68;;;;;;;;;;4977073;28;20031;-86
2022/03/19 02:26:55;;;;;;;12.63;5.90;;;;;;;;;;4980658;28;20025;-79
2022/03/19 02:29:21;;;;;;;9.18;5.05;;;;;;;;;;4980008;28;20038;-81
2022/03/19 02:31:49;;;;;;;12.77;5.13;;;;;;;;;;4978904;28;20479;-79
2022/03/19 02:34:14;;;;;;;14.90;5.55;;;;;;;;;;4982061;28;20038;-82
2022/03/19 02:36:42;;;;;;;10.02;4.85;;;;;;;;;;4985127;28;20545;-78
2022/03/19 02:39:34;;;;;;;11.38;5.50;;;;;;;;;;4980210;28;20026;-81
2022/03/19 02:42:02;;;;;;;11.20;5.40;;;;;;;;;;4988395;28;20030;-84
2022/03/19 02:44:28;;;;;;;9.30;4.72;;;;;;;;;;4981395;28;20499;-80
2022/03/19 02:46:59;;;;;;;13.77;5.68;;;;;;;;;;4984561;28;20038;-88
2022/03/19 02:49:25;;;;;;;11.75;5.10;;;;;;;;;;4984680;28;20129;-81
2022/03/19 02:51:52;;;;;;;9.15;4.90;;;;;;;;;;4981205;28;20153;-77
2022/03/19 02:54:20;;;;;;;12.13;5.40;;;;;;;;;;4984310;28;20026;-86
2022/03/19 02:56:46;;;;;;;10.13;5.40;;;;;;;;;;4985870;28;20053;-79
2022/03/19 02:59:17;;;;;;;12.65;5.82;;;;;;;;;;4985735;28;20038;-81
2022/03/19 03:01:47;;;;;;;12.25;5.68;;;;;;;;;;4986056;28;20105;-78
2022/03/19 03:04:12;;;;;;;11.60;5.65;;;;;;;;;;4988229;28;20073;-81
2022/03/19 03:06:41;;;;;;;11.45;5.63;;;;;;;;;;4988411;28;20046;-80
2022/03/19 03:09:07;;;;;;;12.07;5.75;;;;;;;;;;4989483;28;20092;-82
2022/03/19 03:11:33;;;;;;;12.13;5.82;;;;;;;;;;4986101;28;20062;-79
2022/03/19 03:13:59;;;;;;;14.23;6.40;;;;;;;;;;4989926;28;20109;-79
2022/03/19 03:16:26;;;;;;;13.15;5.93;;;;;;;;;;5010524;28;20109;-79
2022/03/19 03:18:54;;;;;;;13.38;5.80;;;;;;;;;;4985396;28;20030;-84
2022/03/19 03:21:19;;;;;;;12.90;5.93;;;;;;;;;;5020600;28;20060;-83
2022/03/19 03:23:45;;;;;;;16.30;6.00;;;;;;;;;;5019032;28;20053;-86
2022/03/19 03:26:10;;;;;;;11.43;5.72;;;;;;;;;;4987314;28;20574;-86
2022/03/19 03:28:36;;;;;;;14.80;6.32;;;;;;;;;;4988886;28;20038;-82
2022/03/19 03:31:02;;;;;;;14.40;6.28;;;;;;;;;;5014925;28;20042;-78
2022/03/19 03:33:27;;;;;;;14.07;6.05;;;;;;;;;;4988688;28;20037;-82
2022/03/19 03:35:53;;;;;;;12.65;5.78;;;;;;;;;;4985765;28;20034;-79
2022/03/19 03:38:19;;;;;;;12.85;6.30;;;;;;;;;;4999823;28;21703;-79
2022/03/19 03:40:44;;;;;;;13.52;5.90;;;;;;;;;;5021546;28;20030;-81
2022/03/19 03:43:10;;;;;;;16.88;6.10;;;;;;;;;;4985098;28;20034;-82
2022/03/19 03:45:35;;;;;;;16.85;6.85;;;;;;;;;;4987113;28;20049;-81
2022/03/19 03:48:00;;;;;;;16.35;6.20;;;;;;;;;;4980985;28;20072;-86
2022/03/19 03:50:26;;;;;;;18.73;6.38;;;;;;;;;;4982588;28;20502;-82
2022/03/19 03:52:52;;;;;;;13.75;6.25;;;;;;;;;;4982621;28;20066;-86
2022/03/19 03:55:18;;;;;;;18.20;6.18;;;;;;;;;;4984785;28;20072;-79
2022/03/19 03:57:43;;;;;;;14.75;6.43;;;;;;;;;;4988720;28;20023;-78
2022/03/19 04:00:09;;;;;;;13.55;6.30;;;;;;;;;;5002540;28;20137;-82
2022/03/19 04:02:36;;;;;;;13.50;6.00;;;;;;;;;;5017138;28;20144;-86
2022/03/19 04:05:01;;;;;;;16.25;6.45;;;;;;;;;;4983636;28;20062;-79
2022/03/19 04:07:27;;;;;;;14.23;6.70;;;;;;;;;;4989990;28;20062;-82
2022/03/19 04:09:53;;;;;;;14.20;6.13;;;;;;;;;;4990315;28;20086;-79
2022/03/19 04:12:18;;;;;;;13.13;5.68;;;;;;;;;;4989947;28;20034;-86
2022/03/19 04:14:44;;;;;;;11.20;6.00;;;;;;;;;;4985006;28;20033;-77
2022/03/19 04:17:09;;;;;;;13.50;5.90;;;;;;;;;;4987814;28;20039;-80
2022/03/19 04:19:34;;;;;;;16.70;6.53;;;;;;;;;;4984724;28;20117;-78
2022/03/19 04:21:59;;;;;;;12.55;5.78;;;;;;;;;;4985610;28;20066;-77
2022/03/19 04:24:25;;;;;;;13.50;5.70;;;;;;;;;;4988544;28;20022;-86
2022/03/19 04:26:51;;;;;;;14.38;6.28;;;;;;;;;;5005061;28;20034;-77
2022/03/19 04:29:16;;;;;;;9.77;5.47;;;;;;;;;;4991095;28;20371;-86
2022/03/19 04:31:42;;;;;;;16.65;6.63;;;;;;;;;;5015435;28;20501;-85
2022/03/19 04:34:07;;;;;;;12.10;6.15;;;;;;;;;;4990400;28;20122;-86
2022/03/19 04:36:35;;;;;;;12.75;5.68;;;;;;;;;;4985444;28;20065;-81
2022/03/19 04:39:03;;;;;;;12.77;6.30;;;;;;;;;;4985599;28;20022;-80
2022/03/19 04:41:29;;;;;;;15.80;6.00;;;;;;;;;;4986221;28;20116;-78
2022/03/19 04:43:54;;;;;;;13.50;5.90;;;;;;;;;;4985765;28;20693;-77
2022/03/19 04:46:20;;;;;;;13.15;5.97;;;;;;;;;;4984488;28;20362;-83
2022/03/19 04:48:45;;;;;;;11.32;5.75;;;;;;;;;;4983936;28;20038;-78
2022/03/19 04:51:16;;;;;;;15.68;5.93;;;;;;;;;;4984096;28;20030;-78
2022/03/19 04:53:42;;;;;;;13.60;5.68;;;;;;;;;;5016175;28;20034;-79
2022/03/19 04:56:08;;;;;;;16.33;6.50;;;;;;;;;;4982442;28;20041;-82
2022/03/19 04:58:34;;;;;;;12.18;5.40;;;;;;;;;;4987704;28;20451;-80
2022/03/19 05:00:59;;;;;;;11.40;5.78;;;;;;;;;;4985356;28;20168;-85
2022/03/19 05:03:25;;;;;;;12.25;5.80;;;;;;;;;;4985367;28;20117;-82
2022/03/19 05:05:50;;;;;;;10.55;5.90;;;;;;;;;;4984472;28;20535;-79
2022/03/19 05:08:17;;;;;;;17.88;6.00;;;;;;;;;;4982955;28;20027;-79
2022/03/19 05:13:27;;;;;;;11.10;5.68;;;;;;;;;;4986520;28;20069;-78
2022/03/19 05:15:53;;;;;;;11.93;5.90;;;;;;;;;;4988269;28;20061;-78
2022/03/19 05:18:19;;;;;;;13.32;5.90;;;;;;;;;;4980763;28;20037;-78
2022/03/19 05:20:44;;;;;;;11.88;5.90;;;;;;;;;;5014541;28;20109;-85
2022/03/19 05:23:10;;;;;;;12.18;5.45;;;;;;;;;;4982605;28;20491;-78
2022/03/19 05:25:35;;;;;;;13.63;6.55;;;;;;;;;;4986617;28;20120;-79
2022/03/19 05:28:01;;;;;;;13.30;6.95;;;;;;;;;;4987921;28;20100;-77
2022/03/19 05:30:27;;;;;;;15.05;6.35;;;;;;;;;;4984534;28;20026;-82
2022/03/19 05:32:53;;;;;;;13.88;6.18;;;;;;;;;;4982868;28;20397;-86
2022/03/19 05:35:18;;;;;;;14.98;6.63;;;;;;;;;;4982432;28;20125;-85
2022/03/19 05:37:46;;;;;;;12.38;6.20;;;;;;;;;;5016362;28;20117;-86
2022/03/19 05:40:12;;;;;;;14.23;6.25;;;;;;;;;;4984219;28;20462;-77
2022/03/19 05:42:37;;;;;;;11.05;6.18;;;;;;;;;;4983694;28;20052;-86
2022/03/19 05:45:03;;;;;;;10.15;5.70;;;;;;;;;;5017034;28;20149;-82
2022/03/19 05:47:28;;;;;;;10.93;6.13;;;;;;;;;;4984299;28;20045;-85
2022/03/19 05:49:54;;;;;;;16.55;6.93;;;;;;;;;;4985963;28;20034;-80
2022/03/19 05:52:20;;;;;;;14.73;6.55;;;;;;;;;;4985005;28;20113;-81
2022/03/19 05:54:46;;;;;;;16.40;6.78;;;;;;;;;;4985153;28;20026;-86
2022/03/19 05:57:11;;;;;;;15.80;6.55;;;;;;;;;;4984329;28;20034;-77
2022/03/19 05:59:36;;;;;;;12.45;6.20;;;;;;;;;;4986347;28;20835;-80
2022/03/19 06:02:05;;;;;;;14.73;6.72;;;;;;;;;;4980629;28;20038;-81
2022/03/19 06:04:31;;;;;;;14.98;6.50;;;;;;;;;;4987746;28;20388;-79
2022/03/19 06:06:56;;;;;;;11.40;6.95;;;;;;;;;;4988701;28;20054;-79
2022/03/19 06:09:22;;;;;;;13.23;6.72;;;;;;;;;;4984767;28;20023;-79
2022/03/19 06:11:47;;;;;;;12.85;6.68;;;;;;;;;;4984776;28;20418;-82
2022/03/19 06:14:13;;;;;;;13.88;6.85;;;;;;;;;;5002520;28;20022;-81
2022/03/19 06:16:38;;;;;;;13.40;6.53;;;;;;;;;;4987745;28;20533;-86
2022/03/19 06:19:03;;;;;;;15.82;6.60;;;;;;;;;;4983009;28;20018;-79
2022/03/19 06:21:29;;;;;;;13.40;6.70;;;;;;;;;;4989441;28;20037;-79
2022/03/19 06:23:54;;;;;;;13.43;6.38;;;;;;;;;;4985055;28;20030;-77
2022/03/19 06:26:20;;;;;;;15.52;7.05;;;;;;;;;;5019867;28;20464;-82
2022/03/19 06:28:46;;;;;;;13.07;7.10;;;;;;;;;;4982701;28;20045;-85
2022/03/19 06:31:11;;;;;;;11.25;6.63;;;;;;;;;;5020488;28;20022;-79
2022/03/19 06:33:43;;;;;;;17.95;6.55;;;;;;;;;;4991291;28;20026;-77
2022/03/19 06:38:53;;;;;;;13.35;7.35;;;;;;;;;;4987022;28;20569;-78
2022/03/19 06:41:21;;;;;;;15.55;7.07;;;;;;;;;;4991069;28;20034;-86
2022/03/19 06:43:47;;;;;;;13.57;6.55;;;;;;;;;;5018841;28;20026;-85
2022/03/19 06:46:12;;;;;;;18.80;7.30;;;;;;;;;;4991322;28;20479;-82
2022/03/19 06:48:38;;;;;;;13.00;6.82;;;;;;;;;;4988304;28;20030;-78
2022/03/19 06:51:03;;;;;;;13.88;6.63;;;;;;;;;;4990375;28;20061;-81
2022/03/19 06:53:28;;;;;;;13.73;6.90;;;;;;;;;;4986084;28;20030;-85
2022/03/19 06:55:54;;;;;;;12.00;6.57;;;;;;;;;;4989294;28;20109;-79
2022/03/19 06:58:21;;;;;;;13.32;7.85;;;;;;;;;;4991155;28;20142;-79
2022/03/19 07:00:46;;;;;;;18.00;7.50;;;;;;;;;;4984249;28;20023;-81
2022/03/19 07:03:12;;;;;;;13.45;7.10;;;;;;;;;;5016597;28;20471;-86
2022/03/19 07:05:38;;;;;;;14.02;6.93;;;;;;;;;;4986151;28;20394;-86
2022/03/19 07:08:07;;;;;;;19.75;7.40;;;;;;;;;;4984766;28;20049;-79
2022/03/19 07:10:36;;;;;;;15.65;7.18;;;;;;;;;;4984342;28;20133;-81
2022/03/19 07:13:01;;;;;;;13.43;7.00;;;;;;;;;;4991013;28;20042;-82
2022/03/19 07:15:28;;;;;;;18.30;6.75;;;;;;;;;;4993324;28;20038;-78
2022/03/19 07:17:55;;;;;;;14.07;6.93;;;;;;;;;;4981346;28;20061;-78
2022/03/19 07:20:21;;;;;;;18.05;7.47;;;;;;;;;;5017249;28;20030;-81
2022/03/19 07:22:54;;;;;;;16.50;7.25;;;;;;;;;;4986870;28;20038;-78
2022/03/19 07:25:22;;;;;;;12.75;6.43;;;;;;;;;;4983553;28;20038;-79
2022/03/19 07:27:49;;;;;;;13.48;6.68;;;;;;;;;;5017925;28;20490;-77
2022/03/19 07:30:15;;;;;;;14.93;7.07;;;;;;;;;;4982753;28;20058;-86
2022/03/19 07:32:40;;;;;;;17.25;6.88;;;;;;;;;;4984024;28;20068;-78
2022/03/19 07:35:07;;;;;;;14.48;7.10;;;;;;;;;;4985134;28;20085;-82
2022/03/19 07:37:33;;;;;;;19.10;6.88;;;;;;;;;;5014235;28;21216;-77
2022/03/19 07:39:59;;;;;;;12.93;6.55;;;;;;;;;;4988865;28;20026;-85
2022/03/19 07:42:24;;;;;;;11.77;6.45;;;;;;;;;;4988616;28;20022;-77
2022/03/19 07:44:50;;;;;;;12.35;6.43;;;;;;;;;;4986275;28;20126;-76
2022/03/19 07:47:16;;;;;;;12.13;6.55;;;;;;;;;;4986684;28;20438;-85
2022/03/19 07:49:41;;;;;;;13.95;6.68;;;;;;;;;;4980003;28;20034;-85
2022/03/19 07:52:08;;;;;;;16.67;7.03;;;;;;;;;;5014015;28;20548;-79
2022/03/19 07:54:35;;;;;;;14.10;6.57;;;;;;;;;;5013753;28;20026;-83
2022/03/19 07:57:00;;;;;;;11.43;6.57;;;;;;;;;;4984996;28;20876;-79
2022/03/19 07:59:27;;;;;;;14.10;7.13;;;;;;;;;;5019575;28;20121;-85
2022/03/19 08:01:53;;;;;;;11.68;6.40;;;;;;;;;;4987363;28;20026;-86
2022/03/19 08:04:18;;;;;;;13.50;6.43;;;;;;;;;;5020051;28;20030;-78
2022/03/19 08:06:44;;;;;;;13.93;6.45;;;;;;;;;;4988615;28;20052;-83
2022/03/19 08:09:10;;;;;;;15.05;6.05;;;;;;;;;;4986786;28;20121;-77
2022/03/19 08:11:36;;;;;;;11.88;6.50;;;;;;;;;;4988032;28;20846;-82
2022/03/19 08:14:02;;;;;;;13.07;5.80;;;;;;;;;;4987702;28;20033;-82
2022/03/19 08:16:28;;;;;;;13.35;6.95;;;;;;;;;;4986023;28;20030;-85
2022/03/19 08:18:53;;;;;;;12.52;5.88;;;;;;;;;;4985906;28;20041;-80
2022/03/19 08:21:18;;;;;;;14.38;6.22;;;;;;;;;;4990107;28;20359;-84
2022/03/19 08:23:46;;;;;;;13.35;6.63;;;;;;;;;;4983403;28;20034;-79
2022/03/19 08:26:11;;;;;;;13.70;5.95;;;;;;;;;;4984323;28;20650;-79
2022/03/19 08:28:37;;;;;;;14.02;6.28;;;;;;;;;;4982130;28;20062;-79
2022/03/19 08:31:02;;;;;;;11.63;6.03;;;;;;;;;;4986318;28;20129;-84
2022/03/19 08:33:28;;;;;;;12.90;5.82;;;;;;;;;;4982822;28;20093;-82
2022/03/19 08:35:53;;;;;;;12.13;5.47;;;;;;;;;;4984473;28;20084;-86
2022/03/19 08:41:03;;;;;;;12.30;6.10;;;;;;;;;;4990169;28;20061;-79
2022/03/19 08:43:29;;;;;;;14.88;6.35;;;;;;;;;;4992652;28;20034;-80
2022/03/19 08:45:54;;;;;;;12.32;5.80;;;;;;;;;;4990106;28;20042;-81
2022/03/19 08:48:20;;;;;;;10.90;5.53;;;;;;;;;;4990039;28;20045;-84
2022/03/19 08:50:45;;;;;;;13.95;5.82;;;;;;;;;;4989997;28;20038;-79
2022/03/19 08:53:15;;;;;;;14.55;5.80;;;;;;;;;;4988504;28;20026;-79
2022/03/19 08:55:41;;;;;;;15.13;5.07;;;;;;;;;;4990871;28;20087;-82
2022/03/19 08:58:07;;;;;;;13.48;4.80;;;;;;;;;;4989540;28;21718;-76
2022/03/19 09:00:34;;;;;;;13.73;5.20;;;;;;;;;;4990115;28;20018;-87
2022/03/19 09:03:00;;;;;;;10.77;5.25;;;;;;;;;;4991033;28;20034;-83
2022/03/19 09:05:27;;;;;;;12.18;5.50;;;;;;;;;;4982646;28;20027;-77
2022/03/19 09:07:52;;;;;;;11.20;5.07;;;;;;;;;;4986412;28;20065;-80
2022/03/19 09:10:18;;;;;;;13.32;5.68;;;;;;;;;;4986063;28;20058;-78
2022/03/19 09:12:43;;;;;;;10.75;5.05;;;;;;;;;;5021896;28;20026;-81
2022/03/19 09:15:10;;;;;;;13.32;4.82;;;;;;;;;;4989728;28;20375;-77
2022/03/19 09:17:36;;;;;;;13.63;5.43;;;;;;;;;;4986661;28;20463;-78
2022/03/19 09:20:02;;;;;;;16.67;4.90;;;;;;;;;;4989938;28;20109;-82
2022/03/19 09:22:29;;;;;;;10.75;4.80;;;;;;;;;;4990512;28;20026;-78
2022/03/19 09:24:55;;;;;;;10.93;4.40;;;;;;;;;;5019318;28;20030;-82
2022/03/19 09:27:20;;;;;;;13.10;5.50;;;;;;;;;;4990368;28;20072;-82
2022/03/19 09:29:45;;;;;;;10.02;4.47;;;;;;;;;;4990650;28;20033;-82
2022/03/19 09:32:12;;;;;;;12.60;5.45;;;;;;;;;;4991607;28;20034;-82
2022/03/19 09:34:37;;;;;;;10.93;4.78;;;;;;;;;;4986719;28;20442;-86
2022/03/19 09:37:03;;;;;;;10.15;4.25;;;;;;;;;;4987346;28;20037;-79
2022/03/19 09:39:28;;;;;;;13.73;4.28;;;;;;;;;;4986389;28;20045;-82
2022/03/19 09:41:58;;;;;;;11.48;4.78;;;;;;;;;;5019698;28;20549;-80
2022/03/19 09:44:25;;;;;;;10.32;4.45;;;;;;;;;;4989355;28;20048;-85
2022/03/19 09:46:51;;;;;;;11.25;4.55;;;;;;;;;;4988144;28;20046;-79
2022/03/19 09:49:17;;;;;;;13.30;4.50;;;;;;;;;;5015793;28;20032;-81
2022/03/19 09:51:52;;;;;;;10.48;4.50;;;;;;;;;;4979274;28;20021;-78
2022/03/19 09:54:17;;;;;;;10.13;6.25;;;;;;;;;;4982751;28;20113;-85
2022/03/19 09:56:43;;;;;;;9.10;4.65;;;;;;;;;;4984225;28;20113;-77
2022/03/19 09:59:08;;;;;;;10.95;4.55;;;;;;;;;;4983550;28;20493;-86
2022/03/19 10:01:37;;;;;;;9.90;4.10;;;;;;;;;;4985127;28;20053;-80
2022/03/19 10:04:12;;;;;;;8.93;3.95;;;;;;;;;;4969323;28;20387;-85
2022/03/19 10:09:48;;;;;;;9.05;3.50;;;;;;;;;;4986647;28;20036;-80
2022/03/19 10:12:21;;;;;;;10.05;3.88;;;;;;;;;;4986865;28;20109;-79
2022/03/19 10:14:54;;;;;;;6.32;3.22;;;;;;;;;;4982265;28;20165;-82
2022/03/19 10:17:30;;;;;;;9.55;3.10;;;;;;;;;;5015707;28;20029;-80
2022/03/19 10:20:02;;;;;;;9.07;3.00;;;;;;;;;;4982520;28;20182;-81
2022/03/19 10:22:31;;;;;;;9.40;3.30;;;;;;;;;;5016605;28;20398;-81
2022/03/19 10:25:07;;;;;;;7.15;2.60;;;;;;;;;;4983155;28;20470;-83
2022/03/19 10:27:43;;;;;;;6.60;2.88;;;;;;;;;;4980986;28;20386;-81
2022/03/19 10:30:13;;;;;;;7.03;3.00;;;;;;;;;;4985485;28;20126;-85
2022/03/19 10:32:40;;;;;;;8.65;2.75;;;;;;;;;;4999508;28;20030;-79
2022/03/19 10:35:06;;;;;;;9.05;2.50;;;;;;;;;;4981155;28;20050;-80
2022/03/19 10:37:36;;;;;;;6.50;2.25;;;;;;;;;;4986293;28;20050;-85
2022/03/19 10:40:03;;;;;;;10.52;2.45;;;;;;;;;;4985426;28;20031;-85
2022/03/19 10:42:41;;;;;;;6.63;2.22;;;;;;;;;;4998130;28;20443;-81
2022/03/19 10:45:11;;;;;;;6.50;2.53;;;;;;;;;;4986113;28;20034;-81
2022/03/19 10:47:45;;;;;;;6.53;2.00;;;;;;;;;;5016442;28;20042;-80
2022/03/19 10:50:21;;;;;;;7.97;2.42;;;;;;;;;;4986342;28;20031;-78
2022/03/19 10:52:49;;;;;;;6.43;2.22;;;;;;;;;;4987295;28;20019;-80
2022/03/19 10:55:15;;;;;;;6.30;1.88;;;;;;;;;;4983593;28;20617;-82
2022/03/19 10:57:41;;;;;;;4.47;1.60;;;;;;;;;;5016790;28;20026;-80
2022/03/19 11:00:08;;;;;;;5.25;1.50;;;;;;;;;;4987068;28;20022;-81
2022/03/19 11:02:42;;;;;;;6.03;1.77;;;;;;;;;;4983063;28;20041;-85
2022/03/19 11:05:09;;;;;;;5.20;1.33;;;;;;;;;;4981093;28;20035;-78
2022/03/19 11:07:37;;;;;;;4.07;1.42;;;;;;;;;;4981934;28;20389;-79
2022/03/19 11:10:04;;;;;;;4.20;1.40;;;;;;;;;;4982006;28;20189;-78
2022/03/19 11:12:32;;;;;;;6.95;1.42;;;;;;;;;;4984767;28;20049;-79
2022/03/19 11:15:02;;;;;;;4.40;1.52;;;;;;;;;;5004559;28;20030;-81
2022/03/19 11:17:32;;;;;;;4.00;1.20;;;;;;;;;;4985137;28;20375;-82
2022/03/19 11:20:02;;;;;;;8.30;1.70;;;;;;;;;;4987658;28;20486;-82
2022/03/19 11:22:53;;;;;;;2.65;1.10;;;;;;;;;;4989256;28;20030;-78
2022/03/19 11:25:26;;;;;;;4.60;1.55;;;;;;;;;;4993034;28;20409;-78
2022/03/19 11:28:02;;;;;;;4.30;1.30;;;;;;;;;;5001904;28;20788;-79
2022/03/19 11:30:41;;;;;;;4.63;1.60;;;;;;;;;;4986523;28;20065;-85
2022/03/19 11:33:17;;;;;;;4.75;1.90;;;;;;;;;;4985251;28;20116;-85
2022/03/19 11:35:54;;;;;;;6.57;1.67;;;;;;;;;;4986249;28;20105;-80
2022/03/19 11:38:21;;;;;;;4.28;1.92;;;;;;;;;;5018117;28;20117;-84
2022/03/19 11:40:54;;;;;;;6.13;1.85;;;;;;;;;;4985352;28;20543;-80
2022/03/19 11:43:31;;;;;;;5.18;2.05;;;;;;;;;;4987543;28;20018;-81
2022/03/19 11:46:10;;;;;;;6.82;2.10;;;;;;;;;;4989188;28;20050;-80
2022/03/19 11:48:36;;;;;;;4.90;1.92;;;;;;;;;;4988413;28;20027;-81
2022/03/19 11:51:31;;;;;;;7.82;1.83;;;;;;;;;;4990240;28;20049;-80
2022/03/19 11:54:09;;;;;;;5.93;1.73;;;;;;;;;;4982344;28;20055;-81
2022/03/19 11:56:41;;;;;;;3.75;1.40;;;;;;;;;;4989618;28;20050;-79
2022/03/19 11:59:15;;;;;;;7.63;1.73;;;;;;;;;;4988781;28;20367;-77
2022/03/19 12:02:05;;;;;;;4.78;1.50;;;;;;;;;;5018770;28;20045;-79
2022/03/19 12:04:48;;;;;;;7.00;1.88;;;;;;;;;;4996556;28;20094;-85
2022/03/19 12:07:40;;;;;;;4.57;1.90;;;;;;;;;;4987942;28;20073;-82
2022/03/19 12:10:07;;;;;;;6.38;1.60;;;;;;;;;;4982629;28;20058;-83
2022/03/19 12:12:33;;;;;;;5.47;2.20;;;;;;;;;;4990260;28;20105;-86
2022/03/19 12:14:59;;;;;;;8.15;1.60;;;;;;;;;;4989595;28;20129;-81
2022/03/19 12:17:27;;;;;;;6.10;1.60;;;;;;;;;;4988604;28;20022;-82
2022/03/19 12:20:04;;;;;;;9.45;1.70;;;;;;;;;;5013532;28;20034;-78
2022/03/19 12:22:41;;;;;;;5.40;2.60;;;;;;;;;;4989829;28;20478;-81
2022/03/19 12:25:28;;;;;;;4.93;1.38;;;;;;;;;;4987012;28;20073;-80
2022/03/19 12:27:56;;;;;;;3.80;1.40;;;;;;;;;;5021719;28;20033;-81
2022/03/19 12:30:23;;;;;;;4.75;1.45;;;;;;;;;;4983537;28;20034;-83
2022/03/19 12:32:58;;;;;;;19.58;2.15;;;;;;;;;;4979246;28;20034;-80
2022/03/19 12:35:40;;;;;;;8.57;2.28;;;;;;;;;;4984058;28;20030;-81
2022/03/19 12:38:06;;;;;;;4.47;1.30;;;;;;;;;;4983807;28;20022;-85
2022/03/19 12:43:27;;;;;;;4.82;1.52;;;;;;;;;;4984735;28;20064;-79
2022/03/19 12:45:55;;;;;;;4.72;1.33;;;;;;;;;;4981581;28;20615;-83
2022/03/19 12:48:31;;;;;;;3.70;1.60;;;;;;;;;;4983924;28;20782;-79
2022/03/19 12:51:00;;;;;;;3.80;1.48;;;;;;;;;;4981303;28;20061;-87
2022/03/19 12:53:46;;;;;;;3.78;1.33;;;;;;;;;;4978786;28;20064;-86
2022/03/19 12:56:25;;;;;;;4.28;1.17;;;;;;;;;;4984269;28;20030;-85
2022/03/19 12:59:24;;;;;;;4.63;2.30;;;;;;;;;;4985345;28;20057;-81
2022/03/19 13:02:00;;;;;;;3.90;1.20;;;;;;;;;;5015130;28;20034;-80
2022/03/19 13:04:30;;;;;;;4.07;1.35;;;;;;;;;;4983803;28;20079;-84
2022/03/19 13:07:04;;;;;;;5.13;1.38;;;;;;;;;;4984097;28;20058;-85
2022/03/19 13:09:38;;;;;;;6.65;1.42;;;;;;;;;;4984884;28;20034;-81
2022/03/19 13:12:05;;;;;;;5.93;1.50;;;;;;;;;;4980609;28;20635;-82
2022/03/19 13:14:32;;;;;;;3.28;1.08;;;;;;;;;;4983062;28;20038;-82
2022/03/19 13:16:58;;;;;;;3.45;1.45;;;;;;;;;;5015211;28;20038;-80
2022/03/19 13:19:26;;;;;;;6.20;1.60;;;;;;;;;;4981972;28;20050;-85
2022/03/19 13:22:02;;;;;;;7.10;1.90;;;;;;;;;;4982852;28;20037;-82
2022/03/19 13:24:28;;;;;;;13.65;5.95;;;;;;;;;;4996796;28;20034;-82
2022/03/19 13:26:54;;;;;;;7.28;1.80;;;;;;;;;;5016865;28;20117;-85
2022/03/19 13:29:29;;;;;;;5.75;1.52;;;;;;;;;;4981636;28;20031;-83
2022/03/19 13:31:56;;;;;;;2.83;1.33;;;;;;;;;;5009175;28;20185;-84
2022/03/19 13:34:34;;;;;;;3.55;1.33;;;;;;;;;;4981080;28;20034;-81
2022/03/19 13:37:03;;;;;;;4.93;1.52;;;;;;;;;;4978756;28;20739;-79
2022/03/19 13:39:50;;;;;;;3.42;1.30;;;;;;;;;;5009287;28;20129;-81
2022/03/19 13:42:19;;;;;;;5.13;1.30;;;;;;;;;;4969902;28;20048;-81
2022/03/19 13:45:07;;;;;;;5.68;1.52;;;;;;;;;;4981914;28;20026;-84
2022/03/19 13:47:38;;;;;;;4.53;1.25;;;;;;;;;;5012949;28;20042;-83
2022/03/19 13:50:08;;;;;;;13.32;1.98;;;;;;;;;;4978598;28;20117;-80
2022/03/19 13:52:41;;;;;;;5.43;1.83;;;;;;;;;;5010497;28;20346;-80
2022/03/19 13:55:08;;;;;;;4.75;1.55;;;;;;;;;;4981935;28;20502;-80
2022/03/19 13:57:39;;;;;;;5.07;1.50;;;;;;;;;;4982155;28;20038;-81
2022/03/19 14:00:10;;;;;;;9.32;1.45;;;;;;;;;;4984705;28;20042;-83
2022/03/19 14:02:53;;;;;;;5.90;1.58;;;;;;;;;;4983933;28;20041;-83
2022/03/19 14:05:23;;;;;;;7.90;1.35;;;;;;;;;;4999325;28;20505;-85
2022/03/19 14:07:49;;;;;;;5.88;1.40;;;;;;;;;;4985629;28;20026;-85
2022/03/19 14:10:15;;;;;;;7.10;1.85;;;;;;;;;;4987966;28;20402;-79
2022/03/19 14:12:43;;;;;;;5.60;1.90;;;;;;;;;;4987983;28;20038;-79
2022/03/19 14:15:18;;;;;;;4.80;1.27;;;;;;;;;;4985319;28;20088;-79
2022/03/19 14:17:55;;;;;;;4.15;1.40;;;;;;;;;;4990683;28;20029;-86
2022/03/19 14:20:22;;;;;;;3.95;1.10;;;;;;;;;;4987667;28;20045;-81
2022/03/19 14:22:48;;;;;;;3.80;1.30;;;;;;;;;;4979571;28;20038;-80
2022/03/19 14:25:14;;;;;;;4.72;1.25;;;;;;;;;;5016976;28;20022;-79
2022/03/19 14:27:40;;;;;;;6.03;1.30;;;;;;;;;;4989558;28;20033;-82
2022/03/19 14:30:07;;;;;;;4.75;1.23;;;;;;;;;;5016635;28;20052;-83
2022/03/19 14:32:33;;;;;;;6.40;1.40;;;;;;;;;;5018285;28;20057;-83
2022/03/19 14:34:58;;;;;;;4.75;1.30;;;;;;;;;;4988888;28;20384;-80
2022/03/19 14:37:23;;;;;;;4.03;1.25;;;;;;;;;;4985911;28;20026;-79
2022/03/19 14:39:49;;;;;;;5.65;1.50;;;;;;;;;;4990181;28;20038;-81
2022/03/19 14:42:14;;;;;;;3.22;1.10;;;;;;;;;;4985210;28;20376;-80
2022/03/19 14:44:40;;;;;;;2.75;1.00;;;;;;;;;;4987800;28;20181;-86
2022/03/19 14:47:06;;;;;;;2.53;1.10;;;;;;;;;;4990532;28;20554;-80
2022/03/19 14:49:31;;;;;;;6.25;1.60;;;;;;;;;;4988130;28;20113;-86
2022/03/19 14:51:56;;;;;;;3.72;1.20;;;;;;;;;;5025375;28;20018;-79
2022/03/19 14:54:23;;;;;;;3.72;1.10;;;;;;;;;;4992755;28;20074;-83